Time;durP1;ratioP1;P1;durP2;ratioP2;P2;SDS_P1;SDS_P2;PMS_P1;PMS_P2;Temp;Humidity;BMP_temperature;BMP_pressure;BME280_temperature;BME280_humidity;BME280_pressure;Samples;Min_cycle;Max_cycle;Signal;HPM_P1;HPM_P2
2023/01/26 07:26:05;;;;;;;4.97;3.83;;;19.30;38.70;;;;;;5079191;27;20729;-52
2023/01/26 07:28:33;;;;;;;7.33;4.73;;;19.80;39.50;;;;;;5065659;28;20205;-50
2023/01/26 07:30:59;;;;;;;4.80;3.87;;;20.00;39.40;;;;;;5063522;28;20212;-53
2023/01/26 07:33:25;;;;;;;6.10;3.63;;;20.20;39.90;;;;;;5064837;28;20226;-55
2023/01/26 07:35:52;;;;;;;5.57;3.80;;;20.30;39.30;;;;;;5060359;28;20641;-51
2023/01/26 07:38:18;;;;;;;3.93;3.47;;;20.30;39.40;;;;;;5054428;28;20212;-38
2023/01/26 07:40:45;;;;;;;4.70;3.63;;;20.40;39.70;;;;;;5061045;28;20216;-60
2023/01/26 07:43:11;;;;;;;5.10;3.90;;;20.40;39.80;;;;;;5065361;28;20213;-43
2023/01/26 07:45:38;;;;;;;3.77;3.30;;;20.50;39.80;;;;;;5051532;28;20240;-50
2023/01/26 07:48:04;;;;;;;3.40;2.95;;;20.60;39.90;;;;;;5065400;28;20228;-57
2023/01/26 07:50:31;;;;;;;5.40;3.50;;;20.70;40.00;;;;;;5064062;28;20209;-55
2023/01/26 07:52:57;;;;;;;3.08;2.60;;;20.70;40.00;;;;;;5039518;28;20260;-42
2023/01/26 07:55:25;;;;;;;2.90;2.70;;;20.90;40.20;;;;;;5064938;28;20208;-55
2023/01/26 07:57:51;;;;;;;5.50;2.92;;;20.90;40.20;;;;;;5052251;28;20345;-47
2023/01/26 08:00:18;;;;;;;3.50;2.83;;;20.90;40.20;;;;;;5059822;28;20209;-52
2023/01/26 08:02:44;;;;;;;2.70;2.50;;;20.90;40.20;;;;;;5050142;28;20202;-47
2023/01/26 08:05:11;;;;;;;2.83;2.53;;;20.90;40.20;;;;;;5052545;28;20260;-57
2023/01/26 08:07:37;;;;;;;2.60;2.40;;;20.90;40.20;;;;;;5054971;28;20320;-54
2023/01/26 08:10:04;;;;;;;3.85;2.30;;;20.90;40.40;;;;;;5057721;28;20208;-54
2023/01/26 08:12:30;;;;;;;2.70;2.50;;;20.90;40.20;;;;;;5046911;28;20259;-56
2023/01/26 08:14:56;;;;;;;3.22;2.67;;;21.00;39.30;;;;;;5063131;28;20210;-57
2023/01/26 08:17:23;;;;;;;2.92;2.28;;;21.00;40.20;;;;;;5056382;28;20690;-51
2023/01/26 08:19:49;;;;;;;3.30;2.30;;;21.00;39.70;;;;;;5051319;28;20202;-45
2023/01/26 08:22:16;;;;;;;4.47;2.35;;;21.00;40.20;;;;;;5054946;28;20201;-47
2023/01/26 08:24:42;;;;;;;2.60;2.33;;;21.00;40.20;;;;;;5058473;28;20233;-52
2023/01/26 08:27:08;;;;;;;2.45;2.25;;;21.00;40.20;;;;;;5064196;28;20248;-45
2023/01/26 08:29:35;;;;;;;3.25;2.35;;;21.00;40.30;;;;;;5053824;28;20202;-43
2023/01/26 08:32:01;;;;;;;2.50;2.30;;;21.00;40.30;;;;;;5048216;28;20640;-51
2023/01/26 08:34:28;;;;;;;4.15;2.72;;;21.10;40.30;;;;;;5055600;28;20258;-47
2023/01/26 08:36:54;;;;;;;2.55;2.28;;;21.00;40.90;;;;;;5048221;28;20231;-50
2023/01/26 08:39:21;;;;;;;2.70;2.38;;;21.30;40.50;;;;;;5041434;28;20201;-38
2023/01/26 08:41:47;;;;;;;2.53;2.33;;;21.20;40.40;;;;;;5043416;28;20204;-44
2023/01/26 08:44:14;;;;;;;2.90;2.60;;;21.10;40.30;;;;;;5052445;28;20285;-49
2023/01/26 08:46:40;;;;;;;2.45;2.25;;;21.00;40.20;;;;;;5035923;28;20222;-37
2023/01/26 08:49:06;;;;;;;3.30;2.67;;;21.00;40.70;;;;;;5053285;28;20677;-57
2023/01/26 08:51:33;;;;;;;3.10;2.45;;;21.00;40.70;;;;;;5049777;28;20209;-49
2023/01/26 08:53:59;;;;;;;3.70;2.35;;;21.00;41.00;;;;;;5053612;28;20259;-62
2023/01/26 08:56:26;;;;;;;2.40;2.10;;;21.00;40.20;;;;;;5042816;28;20246;-50
2023/01/26 08:58:52;;;;;;;2.60;2.33;;;21.00;40.70;;;;;;5048268;28;20226;-60
2023/01/26 09:01:18;;;;;;;3.97;3.08;;;21.00;40.50;;;;;;5049793;28;20198;-45
2023/01/26 09:03:45;;;;;;;2.50;2.30;;;21.00;40.20;;;;;;5036013;28;20210;-47
2023/01/26 09:06:12;;;;;;;2.55;2.35;;;21.10;40.40;;;;;;5036635;28;20237;-47
2023/01/26 09:08:38;;;;;;;2.63;2.42;;;21.30;40.50;;;;;;5038999;28;20206;-56
2023/01/26 09:11:05;;;;;;;2.92;2.45;;;21.40;40.50;;;;;;5033850;28;20211;-46
2023/01/26 09:13:31;;;;;;;2.58;2.38;;;21.40;40.60;;;;;;5038516;28;20202;-51
2023/01/26 09:15:58;;;;;;;2.85;2.28;;;21.70;40.00;;;;;;5034897;28;20697;-50
2023/01/26 09:18:25;;;;;;;2.83;2.42;;;21.60;39.50;;;;;;5032403;28;20814;-38
2023/01/26 09:20:52;;;;;;;3.75;2.50;;;21.50;40.70;;;;;;5034908;28;20546;-49
2023/01/26 09:23:19;;;;;;;3.97;2.65;;;21.40;40.10;;;;;;5035419;28;20249;-58
2023/01/26 09:25:45;;;;;;;4.47;2.80;;;21.50;40.50;;;;;;5035059;28;20257;-44
2023/01/26 09:28:12;;;;;;;3.55;2.75;;;21.50;40.70;;;;;;5036873;28;20578;-61
2023/01/26 09:30:38;;;;;;;3.05;2.85;;;21.50;40.70;;;;;;5039114;28;20706;-52
2023/01/26 09:33:05;;;;;;;3.03;2.40;;;21.60;40.80;;;;;;5042930;28;20214;-55
2023/01/26 09:35:32;;;;;;;3.40;2.47;;;21.60;41.50;;;;;;5032524;28;20301;-56
2023/01/26 09:37:58;;;;;;;3.38;2.60;;;21.50;40.70;;;;;;5033566;28;20209;-56
2023/01/26 09:40:25;;;;;;;2.72;2.35;;;21.40;40.60;;;;;;5035156;28;20669;-54
2023/01/26 09:42:51;;;;;;;3.20;2.60;;;21.40;40.60;;;;;;5037818;28;20264;-47
2023/01/26 09:45:17;;;;;;;3.50;2.67;;;21.40;40.70;;;;;;5041826;28;20682;-59
2023/01/26 09:47:44;;;;;;;2.28;2.08;;;21.40;41.30;;;;;;5031767;28;20198;-59
2023/01/26 09:50:10;;;;;;;2.55;2.22;;;21.40;40.60;;;;;;5039489;28;20209;-63
2023/01/26 09:52:37;;;;;;;3.65;2.40;;;21.40;40.70;;;;;;5041917;28;21062;-36
2023/01/26 09:55:03;;;;;;;4.28;2.55;;;21.40;40.60;;;;;;5037461;28;20221;-45
2023/01/26 09:57:30;;;;;;;2.80;2.38;;;21.30;40.50;;;;;;5050933;28;20210;-45
2023/01/26 09:59:56;;;;;;;2.60;2.40;;;21.30;40.60;;;;;;5038752;28;20201;-53
2023/01/26 10:02:22;;;;;;;2.33;2.13;;;21.30;40.50;;;;;;5030438;28;20210;-47
2023/01/26 10:04:49;;;;;;;5.68;2.70;;;21.30;40.60;;;;;;5029640;28;20330;-45
2023/01/26 10:07:16;;;;;;;2.65;2.45;;;21.20;40.50;;;;;;5030091;28;20203;-59
2023/01/26 10:09:42;;;;;;;4.05;3.47;;;21.20;40.40;;;;;;5038480;28;20203;-40
2023/01/26 10:12:08;;;;;;;3.28;2.50;;;21.20;40.20;;;;;;5029537;28;20201;-46
2023/01/26 10:14:35;;;;;;;3.15;2.70;;;21.30;40.30;;;;;;5036216;28;20225;-47
2023/01/26 10:17:01;;;;;;;4.82;3.20;;;21.20;39.70;;;;;;5032106;28;20209;-50
2023/01/26 10:19:28;;;;;;;3.53;2.95;;;21.30;40.50;;;;;;5029192;28;20198;-46
2023/01/26 10:21:55;;;;;;;3.30;2.70;;;21.30;40.50;;;;;;5038529;28;20214;-48
2023/01/26 10:24:21;;;;;;;3.00;2.70;;;21.40;40.60;;;;;;5044138;28;20211;-50
2023/01/26 10:26:47;;;;;;;3.67;2.65;;;21.40;40.50;;;;;;5034528;28;20226;-48
2023/01/26 10:29:15;;;;;;;4.85;2.78;;;21.50;40.70;;;;;;5031510;28;20206;-47
2023/01/26 10:31:41;;;;;;;4.25;3.20;;;21.40;40.60;;;;;;5032169;28;20233;-41
2023/01/26 10:34:07;;;;;;;2.38;2.17;;;21.40;40.60;;;;;;5033611;28;20201;-46
2023/01/26 10:36:34;;;;;;;2.65;2.38;;;21.50;40.70;;;;;;5033040;28;20206;-52
2023/01/26 10:39:00;;;;;;;3.00;2.45;;;21.50;40.70;;;;;;5030775;28;20679;-46
2023/01/26 10:41:27;;;;;;;3.65;2.58;;;21.50;41.00;;;;;;5033646;28;20207;-43
2023/01/26 10:43:53;;;;;;;4.50;3.30;;;21.50;41.00;;;;;;5038953;28;20214;-50
2023/01/26 10:46:19;;;;;;;2.60;2.38;;;21.40;41.10;;;;;;5030840;28;20239;-45
2023/01/26 10:48:46;;;;;;;4.75;2.92;;;21.40;40.60;;;;;;5031680;28;20213;-45
2023/01/26 10:51:12;;;;;;;6.50;3.88;;;21.50;40.70;;;;;;5035572;28;20195;-47
2023/01/26 10:53:39;;;;;;;5.30;3.72;;;21.30;35.70;;;;;;5031194;28;20207;-52
2023/01/26 10:56:06;;;;;;;4.75;3.10;;;21.30;37.10;;;;;;5036701;28;20226;-56
2023/01/26 10:58:32;;;;;;;5.03;3.15;;;21.40;38.50;;;;;;5031228;28;20765;-51
2023/01/26 11:00:58;;;;;;;3.53;2.83;;;21.40;38.20;;;;;;5026685;28;20199;-51
2023/01/26 11:03:25;;;;;;;6.38;3.13;;;21.50;38.50;;;;;;5033227;28;20202;-59
2023/01/26 11:05:51;;;;;;;3.92;2.70;;;21.50;38.70;;;;;;5030830;28;20276;-52
2023/01/26 11:08:18;;;;;;;5.05;3.08;;;21.50;38.80;;;;;;5027639;28;20772;-53
2023/01/26 11:10:44;;;;;;;5.07;2.50;;;21.50;39.00;;;;;;5029113;28;20213;-51
2023/01/26 11:13:10;;;;;;;5.47;2.58;;;21.30;39.00;;;;;;5033245;28;20208;-43
2023/01/26 11:15:37;;;;;;;3.35;2.65;;;21.40;39.20;;;;;;5028947;28;20237;-54
2023/01/26 11:18:03;;;;;;;3.55;3.13;;;21.30;39.00;;;;;;5030255;28;20210;-51
2023/01/26 11:20:30;;;;;;;4.53;2.80;;;21.30;39.20;;;;;;5034459;28;20202;-55
2023/01/26 11:22:56;;;;;;;3.85;3.10;;;21.30;39.20;;;;;;5040867;28;20711;-54
2023/01/26 11:25:23;;;;;;;5.40;3.20;;;21.30;39.20;;;;;;5046301;28;20233;-43
2023/01/26 11:27:50;;;;;;;6.28;4.10;;;21.40;39.20;;;;;;5042604;28;20202;-46
2023/01/26 11:30:16;;;;;;;9.70;4.78;;;21.40;39.10;;;;;;5030214;28;20261;-51
2023/01/26 11:32:42;;;;;;;7.95;4.45;;;21.50;39.60;;;;;;5036905;28;20202;-49
2023/01/26 11:35:09;;;;;;;8.38;4.65;;;21.60;40.50;;;;;;5029291;28;20226;-47
2023/01/26 11:37:36;;;;;;;8.15;4.63;;;21.60;41.40;;;;;;5031200;28;20197;-35
2023/01/26 11:40:03;;;;;;;9.20;4.80;;;21.60;42.10;;;;;;5007791;28;20241;-35
2023/01/26 11:42:30;;;;;;;6.78;4.72;;;21.60;41.80;;;;;;5030416;28;20722;-34
2023/01/26 11:44:56;;;;;;;8.18;5.65;;;21.70;42.00;;;;;;4998331;28;20246;-44
2023/01/26 11:47:22;;;;;;;21.92;11.35;;;21.70;42.10;;;;;;4998205;28;20228;-46
2023/01/26 11:49:49;;;;;;;18.63;9.52;;;21.60;42.70;;;;;;4990736;28;20207;-41
2023/01/26 11:52:16;;;;;;;20.60;10.93;;;21.60;43.90;;;;;;4990662;28;20942;-49
2023/01/26 11:54:42;;;;;;;12.88;8.00;;;21.60;44.20;;;;;;5002393;28;20222;-44
2023/01/26 11:57:09;;;;;;;16.23;7.93;;;21.50;43.90;;;;;;4997100;28;20211;-32
2023/01/26 11:59:35;;;;;;;14.25;7.18;;;21.50;43.80;;;;;;4988261;28;20211;-42
2023/01/26 12:02:02;;;;;;;18.02;8.38;;;21.50;44.00;;;;;;4988143;28;20208;-36
2023/01/26 12:04:28;;;;;;;12.05;6.85;;;21.50;44.00;;;;;;4988890;28;20220;-43
2023/01/26 12:06:55;;;;;;;12.52;7.22;;;21.50;42.70;;;;;;5001902;28;20239;-46
2023/01/26 12:09:21;;;;;;;15.23;7.22;;;21.50;41.80;;;;;;5003042;28;20208;-37
2023/01/26 12:11:48;;;;;;;16.30;7.63;;;21.40;42.10;;;;;;5000363;28;20676;-49
2023/01/26 12:14:14;;;;;;;17.30;8.23;;;21.40;42.30;;;;;;5001205;28;20246;-35
2023/01/26 12:16:41;;;;;;;13.55;8.38;;;21.40;42.60;;;;;;5006566;28;20203;-33
2023/01/26 12:19:07;;;;;;;16.27;7.82;;;21.40;42.80;;;;;;5006655;28;20213;-41
2023/01/26 12:21:33;;;;;;;18.27;8.23;;;21.40;42.90;;;;;;4996738;28;20204;-40
2023/01/26 12:24:00;;;;;;;16.92;8.88;;;21.40;43.40;;;;;;4992693;28;20594;-45
2023/01/26 12:26:27;;;;;;;20.02;9.65;;;21.40;43.70;;;;;;4995024;28;20215;-51
2023/01/26 12:28:53;;;;;;;14.05;7.90;;;21.40;43.90;;;;;;4994235;28;20200;-49
2023/01/26 12:31:20;;;;;;;15.35;8.27;;;21.40;44.10;;;;;;4996366;28;20648;-43
2023/01/26 12:33:46;;;;;;;14.60;8.38;;;21.40;44.20;;;;;;4994952;28;20219;-45
2023/01/26 12:36:13;;;;;;;15.05;7.70;;;21.40;44.40;;;;;;5008331;28;20207;-43
2023/01/26 12:38:39;;;;;;;23.38;8.57;;;21.40;44.40;;;;;;4993078;28;20200;-33
2023/01/26 12:41:05;;;;;;;14.15;7.45;;;21.40;44.40;;;;;;4996515;28;20204;-50
2023/01/26 12:43:32;;;;;;;16.05;8.07;;;21.40;44.40;;;;;;4995881;28;20259;-48
2023/01/26 12:45:59;;;;;;;13.90;7.57;;;21.40;44.40;;;;;;4999495;28;20223;-52
2023/01/26 12:48:25;;;;;;;16.63;7.60;;;21.40;44.50;;;;;;4995226;28;20214;-33
2023/01/26 12:50:52;;;;;;;11.77;6.97;;;21.40;45.40;;;;;;4995333;28;20211;-46
2023/01/26 12:53:18;;;;;;;11.25;7.28;;;21.40;45.40;;;;;;4993787;28;20227;-48
2023/01/26 12:55:45;;;;;;;14.75;7.88;;;21.40;45.40;;;;;;4997281;28;20199;-50
2023/01/26 12:58:11;;;;;;;14.55;7.53;;;21.40;44.00;;;;;;4994465;28;20214;-47
2023/01/26 13:00:37;;;;;;;15.27;7.18;;;21.50;43.60;;;;;;4998140;28;20199;-50
2023/01/26 13:03:04;;;;;;;12.85;7.30;;;21.50;43.80;;;;;;4996844;28;20239;-38
2023/01/26 13:05:30;;;;;;;15.43;7.63;;;21.50;44.20;;;;;;4999594;28;20578;-45
2023/01/26 13:07:57;;;;;;;17.27;7.55;;;21.50;45.40;;;;;;4999782;28;20270;-40
2023/01/26 13:10:23;;;;;;;13.52;6.90;;;21.50;45.50;;;;;;4993479;28;20214;-41
2023/01/26 13:12:49;;;;;;;15.50;7.43;;;21.50;45.50;;;;;;4993147;28;20730;-38
2023/01/26 13:15:16;;;;;;;13.18;7.28;;;21.50;45.90;;;;;;4994273;28;20203;-44
2023/01/26 13:17:43;;;;;;;13.85;7.03;;;21.50;46.10;;;;;;4991946;28;20207;-50
2023/01/26 13:20:10;;;;;;;11.65;6.32;;;21.50;46.40;;;;;;4998818;28;20228;-43
2023/01/26 13:22:36;;;;;;;14.55;7.63;;;21.40;46.50;;;;;;4996884;28;20593;-35
2023/01/26 13:25:02;;;;;;;16.98;7.10;;;21.40;46.60;;;;;;4994984;28;20210;-37
2023/01/26 13:27:29;;;;;;;15.13;7.15;;;21.40;46.60;;;;;;4993304;28;20227;-43
2023/01/26 13:29:55;;;;;;;11.88;6.20;;;21.30;46.50;;;;;;4995952;28;22455;-50
2023/01/26 13:32:22;;;;;;;12.57;6.63;;;21.40;46.60;;;;;;4993483;28;20210;-48
2023/01/26 13:34:48;;;;;;;13.60;6.22;;;21.30;46.60;;;;;;4991777;28;20210;-59
2023/01/26 13:37:14;;;;;;;15.05;7.45;;;21.30;46.60;;;;;;4997210;28;20203;-46
2023/01/26 13:39:41;;;;;;;14.40;6.30;;;21.30;46.50;;;;;;4995826;28;20691;-54
2023/01/26 13:42:07;;;;;;;12.15;6.32;;;21.30;46.60;;;;;;5004957;28;20202;-48
2023/01/26 13:44:34;;;;;;;14.23;6.05;;;21.30;46.70;;;;;;4994006;28;20211;-49
2023/01/26 13:47:00;;;;;;;10.13;5.82;;;21.30;46.50;;;;;;4999208;28;20250;-45
2023/01/26 13:49:26;;;;;;;12.85;6.20;;;21.30;46.50;;;;;;5002844;28;20676;-41
2023/01/26 13:51:53;;;;;;;9.10;5.32;;;21.40;47.10;;;;;;4997337;28;20205;-32
2023/01/26 13:54:19;;;;;;;10.85;6.03;;;21.30;47.50;;;;;;4994122;28;20207;-43
2023/01/26 13:56:46;;;;;;;9.70;6.13;;;21.40;46.70;;;;;;4998187;28;20548;-49
2023/01/26 13:59:12;;;;;;;11.18;6.85;;;21.30;43.40;;;;;;5004426;28;20211;-47
2023/01/26 14:01:39;;;;;;;9.45;6.10;;;20.90;38.90;;;;;;4995850;28;20208;-45
2023/01/26 14:04:05;;;;;;;10.43;5.95;;;20.90;38.80;;;;;;4994964;28;20668;-38
2023/01/26 14:06:31;;;;;;;8.35;5.55;;;21.00;39.50;;;;;;4994770;28;20227;-57
2023/01/26 14:08:58;;;;;;;9.02;5.70;;;21.20;39.00;;;;;;5000212;28;20247;-56
2023/01/26 14:11:24;;;;;;;4.75;3.50;;;21.40;39.60;;;;;;4997621;28;20590;-48
2023/01/26 14:13:51;;;;;;;4.45;3.40;;;21.30;40.10;;;;;;5001282;28;20212;-55
2023/01/26 14:16:17;;;;;;;6.13;3.78;;;21.30;40.50;;;;;;4999466;28;20250;-38
2023/01/26 14:18:44;;;;;;;5.55;3.53;;;21.30;40.50;;;;;;4994257;28;20216;-44
2023/01/26 14:21:10;;;;;;;6.57;3.83;;;21.30;40.60;;;;;;4994042;28;20219;-40
2023/01/26 14:23:37;;;;;;;5.75;3.55;;;21.20;40.70;;;;;;4994425;28;20207;-38
2023/01/26 14:26:03;;;;;;;6.07;3.80;;;21.20;40.90;;;;;;4991129;28;20220;-58
2023/01/26 14:28:30;;;;;;;5.97;4.05;;;21.10;41.10;;;;;;4990509;28;20215;-33
2023/01/26 14:30:56;;;;;;;6.50;3.97;;;21.10;42.00;;;;;;4997511;28;20250;-41
2023/01/26 14:33:23;;;;;;;5.63;4.43;;;21.10;41.40;;;;;;4992487;28;20210;-51
2023/01/26 14:35:49;;;;;;;7.28;4.43;;;21.00;41.50;;;;;;4993515;28;20306;-46
2023/01/26 14:38:16;;;;;;;7.00;4.10;;;21.00;41.60;;;;;;4991469;28;20208;-40
2023/01/26 14:40:43;;;;;;;6.05;3.63;;;21.00;41.70;;;;;;5001241;28;20219;-40
2023/01/26 14:43:09;;;;;;;5.85;3.58;;;21.00;42.10;;;;;;4991478;28;20207;-40
2023/01/26 14:45:36;;;;;;;4.60;3.95;;;21.00;41.90;;;;;;4991513;28;20207;-42
2023/01/26 14:48:03;;;;;;;6.78;3.60;;;21.00;41.90;;;;;;4991995;28;20235;-42
2023/01/26 14:50:31;;;;;;;5.43;3.83;;;21.00;42.00;;;;;;4994259;28;20249;-32
2023/01/26 14:52:57;;;;;;;6.00;3.97;;;21.00;42.00;;;;;;5008033;28;20202;-39
2023/01/26 14:55:23;;;;;;;6.72;4.20;;;21.00;42.00;;;;;;5003717;28;20203;-33
2023/01/26 14:57:50;;;;;;;5.68;3.60;;;21.00;42.00;;;;;;5003433;28;20253;-38
2023/01/26 15:00:17;;;;;;;4.13;3.55;;;21.00;42.00;;;;;;5008406;28;20199;-48
2023/01/26 15:02:43;;;;;;;4.50;3.45;;;21.00;42.00;;;;;;4998793;28;20578;-56
2023/01/26 15:05:10;;;;;;;7.35;4.00;;;21.00;42.10;;;;;;5004739;28;20200;-41
2023/01/26 15:07:36;;;;;;;6.82;3.97;;;21.00;42.10;;;;;;5000028;28;20649;-41
2023/01/26 15:10:03;;;;;;;4.78;3.30;;;21.00;42.20;;;;;;5004103;28;20660;-54
2023/01/26 15:12:29;;;;;;;4.63;3.35;;;21.00;42.30;;;;;;5006507;28;20310;-52
